Portada
METAR-TAF:

METAR-TAF

Aeroports :

Manizales, Colòmbia

latitud: 05-01-48N, longitud: 075-27-50W, altitud: 2063 m

Observació

L'informe es va fer fa 1 hora i 4 minuts, a les 15:00 UTC
Vent 6 kt del Oest/Nord-Oest
Temperatura 17°C
Humitat 88%
Pressió 1026 hPa
Visibilitat: 7000 m
Núvols disperses a una alçada de 500 ft
Cel ennuvolat a una alçada de 1500 ft
boira a les proximitats

METAR: SKMZ 121500Z 30006KT 7000 VCFG SCT005 BKN015 17/15 A3031 RMK VCFG/W

Hora: 11:04 (16:04 UTC)


TAF: manca

Observacions i pronòstics meteorològics de més de 4000 aeroports (METAR i TAF).

Les estacions disponibles són els punts grocs i vermells al mapa.

Posi el ratolí al punt desitjat per veure el nom de l'estació.

Feu clic per veure les observacions i els pronòstics meteorològics.

Per canviar el mapa: feu clic els botons verds amb una creu de color negre per apropar; al botó verd amb un guió per allunyar la imatge; o en les fletxes verdes per a mapes adjacents.


METAR-TAF: